HESC

St Catherine International Airport

Egypt
TAF HESC 231708Z 2318/2424 29010KT CAVOK
Issued Valid From Valid To
Apr-23 @ 17:08 UTC
(6 hours ago)
Apr-23 @ 18:00 UTC
(5 hours ago)
Apr-25 @ 00:00 UTC
(-1 days ago)
Apr-23 @ 18:00 to Apr-25 @ 00:00
TAF HESC 231708Z 2318/2424 29010KT CAVOK
Wind Visibility Clouds Conditions
290° at 10 knots 10,000+ meters
  • No significant clouds
TAF HESC 231708Z 2318/2424 29010KT CAVOK
Issued Apr-23 @ 17:08 UTC
(6 hours ago)
Valid From Apr-23 @ 18:00 UTC
(5 hours ago)
Valid To Apr-25 @ 00:00 UTC
(-1 days ago)
Apr-23 @ 18:00 - Apr-25 @ 00:00
Wind Visibility
290° at 10 knots 10,000+ meters
Clouds
  • No significant clouds
Conditions